createdAt,value
2022-11-14T00:02:38.045Z,5.07
2022-11-14T00:05:24.168Z,5.00
2022-11-14T00:08:21.335Z,5.10
2022-11-14T00:11:06.212Z,5.27
2022-11-14T00:13:51.535Z,5.50
2022-11-14T00:16:36.259Z,4.83
2022-11-14T00:19:21.101Z,5.00
2022-11-14T00:22:06.434Z,5.00
2022-11-14T00:24:51.924Z,5.30
2022-11-14T00:27:36.704Z,4.83
2022-11-14T00:30:22.556Z,5.70
2022-11-14T00:33:07.512Z,5.00
2022-11-14T00:35:56.464Z,5.20
2022-11-14T00:38:41.849Z,5.27
2022-11-14T00:41:26.723Z,5.43
2022-11-14T00:44:12.025Z,5.40
2022-11-14T00:46:57.666Z,5.87
2022-11-14T00:49:42.840Z,5.30
2022-11-14T00:52:28.216Z,5.93
2022-11-14T00:55:13.134Z,5.17
2022-11-14T00:57:58.741Z,5.67
2022-11-14T01:00:44.217Z,5.63
2022-11-14T01:03:29.243Z,5.87
2022-11-14T01:06:15.931Z,5.33
2022-11-14T01:09:01.091Z,5.10
2022-11-14T01:11:46.455Z,5.60
2022-11-14T01:14:31.977Z,5.77
2022-11-14T01:17:17.220Z,5.67
2022-11-14T01:20:02.523Z,6.90
2022-11-14T01:22:47.598Z,6.10
2022-11-14T01:25:33.316Z,5.20
2022-11-14T01:28:19.111Z,5.37
2022-11-14T01:31:11.024Z,5.60
2022-11-14T01:33:55.981Z,4.70
2022-11-14T01:36:41.315Z,4.87
2022-11-14T01:39:26.497Z,4.60
2022-11-14T01:42:11.561Z,4.67
2022-11-14T01:44:56.641Z,4.10
2022-11-14T01:47:42.159Z,4.10
2022-11-14T01:50:27.574Z,3.67
2022-11-14T01:53:12.437Z,3.70
2022-11-14T01:55:59.363Z,3.90
2022-11-14T01:58:46.036Z,3.60
2022-11-14T02:01:31.495Z,3.90
2022-11-14T02:04:27.820Z,3.23
2022-11-14T02:07:13.079Z,3.40
2022-11-14T02:09:58.375Z,3.63
2022-11-14T02:12:43.255Z,3.40
2022-11-14T02:15:28.359Z,3.20
2022-11-14T02:18:13.819Z,3.50
2022-11-14T02:20:58.988Z,3.23
2022-11-14T02:23:44.431Z,2.83
2022-11-14T02:26:31.988Z,3.43
2022-11-14T02:29:21.154Z,3.27
2022-11-14T02:32:10.484Z,3.30
2022-11-14T02:34:55.780Z,3.17
2022-11-14T02:40:44.236Z,2.60
2022-11-14T02:43:29.631Z,2.87
2022-11-14T02:46:14.873Z,2.70
2022-11-14T02:52:02.725Z,3.50
2022-11-14T02:57:50.814Z,3.87
2022-11-14T03:03:39.233Z,3.50
2022-11-14T03:06:24.469Z,4.20
2022-11-14T03:09:10.192Z,4.03
2022-11-14T03:11:55.117Z,4.27
2022-11-14T03:14:39.950Z,5.00
2022-11-14T03:20:28.525Z,5.23
2022-11-14T03:23:13.955Z,5.73
2022-11-14T03:26:00.143Z,6.00
2022-11-14T03:28:45.560Z,6.50
2022-11-14T03:31:30.953Z,6.87
2022-11-14T03:34:17.020Z,5.93
2022-11-14T03:37:02.334Z,6.17
2022-11-14T03:39:47.473Z,6.07
2022-11-14T03:42:35.625Z,5.50
2022-11-14T03:45:20.987Z,6.43
2022-11-14T03:48:06.233Z,7.07
2022-11-14T03:53:54.603Z,7.57
2022-11-14T03:56:39.977Z,7.50
2022-11-14T03:59:24.950Z,7.27
2022-11-14T04:05:13.912Z,7.10
2022-11-14T04:07:59.309Z,7.23
2022-11-14T04:10:46.732Z,7.17
2022-11-14T04:16:35.020Z,6.97
2022-11-14T04:19:19.978Z,6.87
2022-11-14T04:22:04.979Z,6.93
2022-11-14T04:24:50.124Z,7.17
2022-11-14T04:27:35.515Z,6.93
2022-11-14T04:33:24.476Z,7.63
2022-11-14T04:36:09.960Z,7.70
2022-11-14T04:38:55.231Z,7.47
2022-11-14T04:41:40.514Z,7.83
2022-11-14T04:44:25.743Z,8.20
2022-11-14T04:50:13.860Z,8.70
2022-11-14T04:53:00.008Z,8.07
2022-11-14T04:55:45.851Z,8.53
2022-11-14T05:01:34.163Z,8.87
2022-11-14T05:04:19.805Z,9.30
2022-11-14T05:07:05.284Z,9.67
2022-11-14T05:12:54.317Z,9.87
2022-11-14T05:18:47.006Z,9.10
2022-11-14T05:21:32.689Z,9.33
2022-11-14T05:24:19.380Z,9.13
2022-11-14T05:27:05.739Z,10.27
2022-11-14T05:29:50.728Z,9.70
2022-11-14T05:35:38.681Z,9.37
2022-11-14T05:38:23.881Z,9.37
2022-11-14T05:41:09.614Z,10.40
2022-11-14T05:43:54.927Z,10.93
2022-11-14T05:46:40.285Z,10.83
2022-11-14T05:49:25.051Z,11.07
2022-11-14T05:52:10.380Z,11.73
2022-11-14T05:54:56.124Z,11.53
2022-11-14T05:57:41.179Z,12.83
2022-11-14T06:00:27.139Z,12.70
2022-11-14T06:03:12.120Z,11.90
2022-11-14T06:05:57.299Z,11.87
2022-11-14T06:08:42.635Z,12.07
2022-11-14T06:11:27.957Z,13.17
2022-11-14T06:14:13.472Z,15.53
2022-11-14T06:16:59.036Z,12.73
2022-11-14T06:19:44.329Z,13.57
2022-11-14T06:22:29.665Z,13.17
2022-11-14T06:25:15.242Z,13.33
2022-11-14T06:28:00.428Z,14.07
2022-11-14T06:30:45.402Z,14.77
2022-11-14T06:33:33.643Z,13.90
2022-11-14T06:36:18.737Z,15.73
2022-11-14T06:39:04.310Z,14.83
2022-11-14T06:41:49.240Z,13.80
2022-11-14T06:44:34.537Z,14.57
2022-11-14T06:47:19.511Z,13.93
2022-11-14T06:50:06.041Z,14.47
2022-11-14T06:52:51.267Z,19.03
2022-11-14T06:55:36.717Z,19.37
2022-11-14T06:58:22.034Z,15.27
2022-11-14T07:01:08.051Z,14.93
2022-11-14T07:03:53.544Z,15.07
2022-11-14T07:06:38.916Z,16.27
2022-11-14T07:09:23.829Z,17.00
2022-11-14T07:12:09.773Z,15.13
2022-11-14T07:14:55.027Z,13.93
2022-11-14T07:17:40.377Z,12.83
2022-11-14T07:20:26.069Z,12.80
2022-11-14T07:23:11.339Z,12.53
2022-11-14T07:26:00.099Z,12.13
2022-11-14T07:28:48.122Z,13.57
2022-11-14T07:31:36.219Z,13.47
2022-11-14T07:34:21.143Z,13.43
2022-11-14T07:37:06.346Z,12.57
2022-11-14T07:39:51.432Z,12.20
2022-11-14T07:42:36.744Z,11.87
2022-11-14T07:45:22.988Z,11.47
2022-11-14T07:48:08.172Z,11.50
2022-11-14T07:50:53.424Z,11.73
2022-11-14T07:53:38.221Z,12.80
2022-11-14T07:56:25.940Z,12.40
2022-11-14T07:59:10.944Z,12.83
2022-11-14T08:01:56.190Z,12.20
2022-11-14T08:04:41.764Z,12.80
2022-11-14T08:07:27.002Z,11.73
2022-11-14T08:10:14.226Z,11.87
2022-11-14T08:13:29.743Z,11.43
2022-11-14T08:16:12.036Z,11.17
2022-11-14T08:18:58.554Z,11.67
2022-11-14T08:21:43.847Z,11.27
2022-11-14T08:24:29.380Z,11.87
2022-11-14T08:27:14.639Z,12.20
2022-11-14T08:30:00.054Z,11.50
2022-11-14T08:32:45.103Z,11.27
2022-11-14T08:35:30.702Z,10.37
2022-11-14T08:38:15.645Z,11.50
2022-11-14T08:41:01.645Z,10.00
2022-11-14T08:43:46.932Z,10.40
2022-11-14T08:46:32.476Z,10.10
2022-11-14T08:49:17.788Z,9.33
2022-11-14T08:52:03.626Z,9.13
2022-11-14T08:54:48.737Z,9.00
2022-11-14T08:57:34.245Z,9.57
2022-11-14T09:00:20.195Z,9.20
2022-11-14T09:03:09.257Z,8.37
2022-11-14T09:05:54.617Z,8.17
2022-11-14T09:08:39.678Z,8.17
2022-11-14T09:11:24.672Z,8.13
2022-11-14T09:17:12.588Z,7.93
2022-11-14T09:19:58.147Z,7.10
2022-11-14T09:22:43.006Z,7.07
2022-11-14T09:25:31.622Z,6.60
2022-11-14T09:28:17.139Z,7.43
2022-11-14T09:31:03.268Z,7.47
2022-11-14T09:33:48.498Z,7.40
2022-11-14T09:36:34.355Z,6.97
2022-11-14T09:39:19.690Z,7.03
2022-11-14T09:42:17.303Z,6.87
2022-11-14T09:45:03.585Z,7.50
2022-11-14T09:47:49.809Z,13.50
2022-11-14T09:50:36.948Z,7.93
2022-11-14T09:53:33.226Z,7.77
2022-11-14T09:56:27.600Z,7.53
2022-11-14T09:59:13.001Z,7.90
2022-11-14T10:02:01.287Z,6.90
2022-11-14T10:04:52.302Z,7.77
2022-11-14T10:07:40.548Z,8.10
2022-11-14T10:10:32.299Z,7.60
2022-11-14T10:13:31.820Z,7.70
2022-11-14T10:19:42.564Z,8.23
2022-11-14T10:22:28.193Z,8.30
2022-11-14T10:25:16.635Z,8.23
2022-11-14T10:28:05.470Z,8.93
2022-11-14T10:30:52.563Z,8.73
2022-11-14T10:33:42.418Z,8.93
2022-11-14T10:36:46.611Z,9.43
2022-11-14T10:42:35.699Z,10.00
2022-11-14T10:45:28.571Z,9.77
2022-11-14T10:48:15.072Z,9.43
2022-11-14T10:51:02.141Z,9.40
2022-11-14T10:53:52.117Z,9.07
2022-11-14T10:56:50.947Z,9.63
2022-11-14T10:59:36.482Z,10.40
2022-11-14T11:02:21.666Z,10.73
2022-11-14T11:05:16.500Z,9.83
2022-11-14T11:08:43.127Z,10.07
2022-11-14T11:11:32.774Z,9.80
2022-11-14T11:14:18.282Z,10.47
2022-11-14T11:17:12.757Z,10.20
2022-11-14T11:19:58.334Z,10.03
2022-11-14T11:22:43.705Z,11.13
2022-11-14T11:25:29.822Z,10.73
2022-11-14T11:28:19.238Z,10.27
2022-11-14T11:31:04.281Z,11.03
2022-11-14T11:33:49.719Z,10.20
2022-11-14T11:36:36.532Z,10.77
2022-11-14T11:39:23.590Z,10.03
2022-11-14T11:42:10.752Z,10.90
2022-11-14T11:44:58.781Z,11.47
2022-11-14T11:50:53.508Z,12.03
2022-11-14T11:56:59.995Z,11.53
2022-11-14T11:59:49.797Z,11.77
2022-11-14T12:02:35.039Z,11.83
2022-11-14T12:05:23.337Z,12.37
2022-11-14T12:08:21.343Z,13.77
2022-11-14T12:11:07.030Z,12.43
2022-11-14T12:13:58.292Z,14.73
2022-11-14T12:16:55.610Z,13.97
2022-11-14T12:19:41.111Z,14.63
2022-11-14T12:22:49.568Z,14.37
2022-11-14T12:25:41.106Z,14.60
2022-11-14T12:28:44.930Z,13.40
2022-11-14T12:31:32.577Z,14.30
2022-11-14T12:34:28.663Z,13.00
2022-11-14T12:37:24.458Z,15.00
2022-11-14T12:40:23.529Z,15.37
2022-11-14T12:43:37.919Z,14.60
2022-11-14T12:46:23.350Z,14.10
2022-11-14T12:49:31.432Z,15.00
2022-11-14T12:52:40.639Z,14.20
2022-11-14T12:55:25.620Z,15.43
2022-11-14T12:58:15.736Z,14.07
2022-11-14T13:01:03.773Z,13.90
2022-11-14T13:04:04.224Z,13.43
2022-11-14T13:07:01.640Z,14.80
2022-11-14T13:13:27.243Z,12.40
2022-11-14T13:16:50.526Z,13.93
2022-11-14T13:19:54.002Z,14.77
2022-11-14T13:22:40.889Z,14.00
2022-11-14T13:25:26.043Z,13.33
2022-11-14T13:28:30.185Z,14.27
2022-11-14T13:31:15.220Z,13.67
2022-11-14T13:34:00.612Z,14.17
2022-11-14T13:37:18.607Z,16.00
2022-11-14T13:40:22.606Z,13.63
2022-11-14T13:43:26.798Z,15.23
2022-11-14T13:46:15.338Z,15.50
2022-11-14T13:49:13.734Z,15.50
2022-11-14T13:51:58.691Z,16.00
2022-11-14T13:54:47.919Z,16.77
2022-11-14T14:00:58.509Z,16.03
2022-11-14T14:03:51.939Z,15.97
2022-11-14T14:06:37.527Z,16.70
2022-11-14T14:09:27.916Z,17.63
2022-11-14T14:12:18.031Z,17.67
2022-11-14T14:15:04.876Z,18.63
2022-11-14T14:18:01.996Z,16.33
2022-11-14T14:20:47.373Z,17.20
2022-11-14T14:23:32.602Z,17.87
2022-11-14T14:26:22.236Z,18.93
2022-11-14T14:29:28.091Z,17.97
2022-11-14T14:35:32.549Z,19.57
2022-11-14T14:41:31.375Z,21.37
2022-11-14T14:47:31.074Z,20.00
2022-11-14T14:50:17.713Z,19.43
2022-11-14T14:53:02.763Z,20.47
2022-11-14T14:55:57.825Z,22.80
2022-11-14T14:58:42.952Z,23.37
2022-11-14T15:01:34.847Z,24.13
2022-11-14T15:04:20.754Z,24.07
2022-11-14T15:07:06.074Z,25.13
2022-11-14T15:09:55.558Z,24.73
2022-11-14T15:12:40.733Z,25.57
2022-11-14T15:15:25.804Z,24.87
2022-11-14T15:21:27.976Z,26.83
2022-11-14T15:24:14.863Z,26.73
2022-11-14T15:27:02.955Z,26.07
2022-11-14T15:29:49.525Z,26.47
2022-11-14T15:32:34.696Z,26.77
2022-11-14T15:35:24.923Z,28.13
2022-11-14T15:38:42.042Z,28.83
2022-11-14T15:41:24.071Z,26.70
2022-11-14T15:44:27.925Z,27.80
2022-11-14T15:47:14.389Z,25.83
2022-11-14T15:50:03.840Z,25.87
2022-11-14T15:52:49.518Z,25.93
2022-11-14T15:55:34.635Z,28.00
2022-11-14T15:58:28.134Z,26.07
2022-11-14T16:01:26.308Z,24.53
2022-11-14T16:04:14.809Z,26.90
2022-11-14T16:06:59.764Z,26.57
2022-11-14T16:09:45.294Z,26.47
2022-11-14T16:12:31.989Z,26.60
2022-11-14T16:15:20.154Z,27.93
2022-11-14T16:18:05.743Z,29.27
2022-11-14T16:20:51.712Z,29.17
2022-11-14T16:23:36.995Z,29.67
2022-11-14T16:26:21.947Z,29.93
2022-11-14T16:29:08.110Z,28.70
2022-11-14T16:31:55.529Z,29.17
2022-11-14T16:34:40.780Z,27.73
2022-11-14T16:37:26.533Z,28.17
2022-11-14T16:40:16.620Z,29.13
2022-11-14T16:43:02.238Z,29.33
2022-11-14T16:45:47.659Z,31.10
2022-11-14T16:48:35.694Z,29.73
2022-11-14T16:51:46.566Z,29.17
2022-11-14T16:54:26.581Z,29.57
2022-11-14T16:57:12.271Z,28.93
2022-11-14T16:59:59.795Z,26.67
2022-11-14T17:02:45.826Z,27.10
2022-11-14T17:05:31.744Z,29.47
2022-11-14T17:08:16.994Z,28.73
2022-11-14T17:14:09.003Z,29.03
2022-11-14T17:19:58.610Z,29.80
2022-11-14T17:22:44.498Z,27.57
2022-11-14T17:25:30.329Z,29.27
2022-11-14T17:28:15.960Z,27.50
2022-11-14T17:31:06.355Z,28.13
2022-11-14T17:33:52.457Z,25.20
2022-11-14T17:36:37.755Z,26.60
2022-11-14T17:39:23.651Z,28.20
2022-11-14T17:42:08.965Z,29.63
2022-11-14T17:44:54.461Z,27.10
2022-11-14T17:47:39.638Z,27.00
2022-11-14T17:50:24.920Z,29.77
2022-11-14T17:53:10.002Z,29.40
2022-11-14T17:55:57.230Z,26.43
2022-11-14T17:58:42.603Z,29.17
2022-11-14T18:01:30.547Z,28.77
2022-11-14T18:04:15.709Z,28.13
2022-11-14T18:07:00.806Z,26.80
2022-11-14T18:09:46.344Z,26.90
2022-11-14T18:12:31.782Z,29.07
2022-11-14T18:15:17.129Z,28.53
2022-11-14T18:18:02.244Z,28.47
2022-11-14T18:20:47.540Z,28.37
2022-11-14T18:23:33.012Z,29.67
2022-11-14T18:26:18.501Z,29.93
2022-11-14T18:29:04.117Z,30.57
2022-11-14T18:31:49.566Z,28.73
2022-11-14T18:34:37.119Z,30.30
2022-11-14T18:37:22.713Z,31.63
2022-11-14T18:40:14.762Z,26.57
2022-11-14T18:43:01.386Z,29.50
2022-11-14T18:45:46.717Z,29.93
2022-11-14T18:48:32.188Z,30.27
2022-11-14T18:51:18.387Z,30.03
2022-11-14T18:54:03.621Z,28.40
2022-11-14T18:56:48.744Z,30.23
2022-11-14T18:59:34.404Z,25.93
2022-11-14T19:02:19.744Z,28.50
2022-11-14T19:05:05.637Z,27.73
2022-11-14T19:07:54.092Z,23.10
2022-11-14T19:10:39.805Z,28.50
2022-11-14T19:13:25.390Z,30.13
2022-11-14T19:16:10.997Z,28.87
2022-11-14T19:18:56.094Z,27.43
2022-11-14T19:21:41.439Z,26.30
2022-11-14T19:24:26.762Z,29.40
2022-11-14T19:27:13.455Z,29.20
2022-11-14T19:30:00.036Z,27.20
2022-11-14T19:32:46.123Z,25.10
2022-11-14T19:35:31.493Z,28.30
2022-11-14T19:38:17.016Z,25.57
2022-11-14T19:41:07.549Z,28.97
2022-11-14T19:43:53.020Z,26.87
2022-11-14T19:46:47.261Z,23.57
2022-11-14T19:49:34.992Z,28.27
2022-11-14T19:52:20.415Z,29.00
2022-11-14T19:55:05.968Z,28.37
2022-11-14T19:57:51.397Z,27.83
2022-11-14T20:00:36.630Z,29.30
2022-11-14T20:03:21.860Z,31.87
2022-11-14T20:06:14.392Z,29.03
2022-11-14T20:09:05.197Z,30.83
2022-11-14T20:11:50.404Z,28.13
2022-11-14T20:14:35.846Z,29.17
2022-11-14T20:17:20.975Z,30.57
2022-11-14T20:20:06.691Z,23.70
2022-11-14T20:22:51.711Z,30.40
2022-11-14T20:25:37.271Z,29.60
2022-11-14T20:28:22.753Z,30.30
2022-11-14T20:31:08.796Z,31.20
2022-11-14T20:33:54.688Z,26.30
2022-11-14T20:39:46.949Z,25.70
2022-11-14T20:42:32.436Z,28.53
2022-11-14T20:45:17.945Z,29.23
2022-11-14T20:48:03.215Z,30.13
2022-11-14T20:50:48.435Z,31.20
2022-11-14T20:53:33.889Z,31.83
2022-11-14T20:56:20.922Z,30.73
2022-11-14T20:59:07.419Z,31.33
2022-11-14T21:01:53.368Z,30.07
2022-11-14T21:04:38.837Z,29.73
2022-11-14T21:07:24.244Z,29.47
2022-11-14T21:10:45.055Z,31.93
2022-11-14T21:13:48.851Z,28.47
2022-11-14T21:16:35.220Z,24.33
2022-11-14T21:19:20.875Z,26.67
2022-11-14T21:22:06.202Z,28.77
2022-11-14T21:24:51.510Z,28.87
2022-11-14T21:27:37.008Z,28.73
2022-11-14T21:30:22.569Z,27.37
2022-11-14T21:33:08.094Z,28.47
2022-11-14T21:35:53.422Z,28.37
2022-11-14T21:38:38.724Z,27.77
2022-11-14T21:41:24.527Z,29.73
2022-11-14T21:44:13.726Z,30.43
2022-11-14T21:46:58.969Z,28.53
2022-11-14T21:49:44.147Z,30.03
2022-11-14T21:52:29.313Z,29.27
2022-11-14T21:55:15.466Z,30.17
2022-11-14T21:58:02.531Z,29.27
2022-11-14T22:04:08.950Z,28.87
2022-11-14T22:06:54.412Z,30.97
2022-11-14T22:09:45.096Z,29.03
2022-11-14T22:12:30.867Z,30.50
2022-11-14T22:15:16.075Z,29.93
2022-11-14T22:18:01.409Z,31.07
2022-11-14T22:20:46.381Z,29.43
2022-11-14T22:26:39.912Z,30.00
2022-11-14T22:29:25.451Z,29.73
2022-11-14T22:32:10.816Z,29.47
2022-11-14T22:34:57.242Z,29.57
2022-11-14T22:37:42.325Z,30.40
2022-11-14T22:43:30.942Z,30.73
2022-11-14T22:49:21.381Z,30.77
2022-11-14T22:55:13.759Z,31.40
2022-11-14T22:58:01.983Z,32.03
2022-11-14T23:00:47.378Z,31.83
2022-11-14T23:03:32.727Z,33.20
2022-11-14T23:06:18.407Z,31.80
2022-11-14T23:09:03.612Z,32.40
2022-11-14T23:11:48.593Z,32.80
2022-11-14T23:14:33.954Z,32.67
2022-11-14T23:17:19.700Z,33.30
2022-11-14T23:20:05.900Z,34.40
2022-11-14T23:22:51.121Z,35.27
2022-11-14T23:25:37.785Z,34.37
2022-11-14T23:28:22.973Z,34.57
2022-11-14T23:31:08.857Z,33.37
2022-11-14T23:33:54.492Z,33.10
2022-11-14T23:36:39.468Z,33.17
2022-11-14T23:39:24.369Z,33.60
2022-11-14T23:42:09.243Z,33.67
2022-11-14T23:44:54.509Z,32.83
2022-11-14T23:47:39.968Z,33.57
2022-11-14T23:50:25.049Z,34.67
2022-11-14T23:53:12.040Z,33.93
2022-11-14T23:55:57.827Z,31.80
2022-11-14T23:58:43.049Z,34.60
